sensor_id;sensor_type;location;lat;lon;timestamp;temperature;humidity
75210;DHT22;63796;53.136;14.882;2023-02-26T00:01:25;1.90;99.90
75210;DHT22;63796;53.136;14.882;2023-02-26T00:03:58;2.00;99.90
75210;DHT22;63796;53.136;14.882;2023-02-26T00:06:27;2.00;99.90
75210;DHT22;63796;53.136;14.882;2023-02-26T00:08:57;1.90;99.90
75210;DHT22;63796;53.136;14.882;2023-02-26T00:11:25;2.00;99.90
75210;DHT22;63796;53.136;14.882;2023-02-26T00:13:52;2.10;99.90
75210;DHT22;63796;53.136;14.882;2023-02-26T00:16:23;2.10;99.90
75210;DHT22;63796;53.136;14.882;2023-02-26T00:18:54;2.30;99.90
75210;DHT22;63796;53.136;14.882;2023-02-26T00:21:23;2.20;99.90
75210;DHT22;63796;53.136;14.882;2023-02-26T00:23:52;2.10;99.90
75210;DHT22;63796;53.136;14.882;2023-02-26T00:26:20;2.00;99.90
75210;DHT22;63796;53.136;14.882;2023-02-26T00:28:50;2.00;99.90
75210;DHT22;63796;53.136;14.882;2023-02-26T00:31:18;2.00;99.90
75210;DHT22;63796;53.136;14.882;2023-02-26T00:33:51;1.90;99.90
75210;DHT22;63796;53.136;14.882;2023-02-26T00:42:34;1.70;99.90
75210;DHT22;63796;53.136;14.882;2023-02-26T00:45:02;1.80;99.90
75210;DHT22;63796;53.136;14.882;2023-02-26T00:47:42;1.80;99.90
75210;DHT22;63796;53.136;14.882;2023-02-26T00:50:13;1.80;99.90
75210;DHT22;63796;53.136;14.882;2023-02-26T00:55:39;2.10;99.90
75210;DHT22;63796;53.136;14.882;2023-02-26T00:58:06;2.20;99.90
75210;DHT22;63796;53.136;14.882;2023-02-26T01:00:34;2.30;99.90
75210;DHT22;63796;53.136;14.882;2023-02-26T01:03:01;2.40;99.90
75210;DHT22;63796;53.136;14.882;2023-02-26T01:05:29;2.50;99.90
75210;DHT22;63796;53.136;14.882;2023-02-26T01:08:31;2.30;99.90
75210;DHT22;63796;53.136;14.882;2023-02-26T01:10:57;2.40;99.90
75210;DHT22;63796;53.136;14.882;2023-02-26T01:13:25;2.40;99.90
75210;DHT22;63796;53.136;14.882;2023-02-26T01:15:54;2.40;99.90
75210;DHT22;63796;53.136;14.882;2023-02-26T01:18:30;2.40;99.90
75210;DHT22;63796;53.136;14.882;2023-02-26T01:21:04;2.50;99.90
75210;DHT22;63796;53.136;14.882;2023-02-26T01:23:39;2.50;99.90
75210;DHT22;63796;53.136;14.882;2023-02-26T01:26:10;2.50;99.90
75210;DHT22;63796;53.136;14.882;2023-02-26T01:28:38;2.60;99.90
75210;DHT22;63796;53.136;14.882;2023-02-26T01:31:06;2.60;99.90
75210;DHT22;63796;53.136;14.882;2023-02-26T01:33:46;2.70;99.90
75210;DHT22;63796;53.136;14.882;2023-02-26T01:36:22;2.70;99.90
75210;DHT22;63796;53.136;14.882;2023-02-26T01:39:09;2.70;99.90
75210;DHT22;63796;53.136;14.882;2023-02-26T01:41:51;2.70;99.90
75210;DHT22;63796;53.136;14.882;2023-02-26T01:50:04;2.70;99.90
75210;DHT22;63796;53.136;14.882;2023-02-26T01:55:21;2.60;99.90
75210;DHT22;63796;53.136;14.882;2023-02-26T01:57:50;2.60;99.90
75210;DHT22;63796;53.136;14.882;2023-02-26T02:00:20;2.50;99.90
75210;DHT22;63796;53.136;14.882;2023-02-26T02:02:50;2.60;99.90
75210;DHT22;63796;53.136;14.882;2023-02-26T02:08:09;2.60;99.90
75210;DHT22;63796;53.136;14.882;2023-02-26T02:22:07;2.80;99.90
75210;DHT22;63796;53.136;14.882;2023-02-26T02:30:23;2.70;99.90
75210;DHT22;63796;53.136;14.882;2023-02-26T02:33:04;2.70;99.90
75210;DHT22;63796;53.136;14.882;2023-02-26T02:35:45;2.40;99.90
75210;DHT22;63796;53.136;14.882;2023-02-26T02:38:24;2.40;99.90
75210;DHT22;63796;53.136;14.882;2023-02-26T02:40:56;2.40;99.90
75210;DHT22;63796;53.136;14.882;2023-02-26T02:43:31;2.30;99.90
75210;DHT22;63796;53.136;14.882;2023-02-26T02:46:05;2.20;99.90
75210;DHT22;63796;53.136;14.882;2023-02-26T02:48:40;2.30;99.90
75210;DHT22;63796;53.136;14.882;2023-02-26T02:51:18;2.40;99.90
75210;DHT22;63796;53.136;14.882;2023-02-26T02:54:10;2.50;99.90
75210;DHT22;63796;53.136;14.882;2023-02-26T02:59:23;2.50;99.90
75210;DHT22;63796;53.136;14.882;2023-02-26T03:04:40;2.60;99.90
75210;DHT22;63796;53.136;14.882;2023-02-26T03:07:08;2.60;99.90
75210;DHT22;63796;53.136;14.882;2023-02-26T03:09:36;2.50;99.90
75210;DHT22;63796;53.136;14.882;2023-02-26T03:12:04;2.50;99.90
75210;DHT22;63796;53.136;14.882;2023-02-26T03:14:32;2.60;99.90
75210;DHT22;63796;53.136;14.882;2023-02-26T03:27:51;2.60;99.90
75210;DHT22;63796;53.136;14.882;2023-02-26T03:30:36;2.60;99.90
75210;DHT22;63796;53.136;14.882;2023-02-26T03:36:18;2.80;99.90
75210;DHT22;63796;53.136;14.882;2023-02-26T03:41:37;2.80;99.90
75210;DHT22;63796;53.136;14.882;2023-02-26T03:44:12;2.70;99.90
75210;DHT22;63796;53.136;14.882;2023-02-26T03:46:49;2.70;99.90
75210;DHT22;63796;53.136;14.882;2023-02-26T03:49:25;2.70;99.90
75210;DHT22;63796;53.136;14.882;2023-02-26T03:51:55;2.60;99.90
75210;DHT22;63796;53.136;14.882;2023-02-26T03:54:27;2.70;99.90
75210;DHT22;63796;53.136;14.882;2023-02-26T03:56:59;2.70;99.90
75210;DHT22;63796;53.136;14.882;2023-02-26T03:59:27;2.80;99.90
75210;DHT22;63796;53.136;14.882;2023-02-26T04:04:27;2.80;99.90
75210;DHT22;63796;53.136;14.882;2023-02-26T04:06:56;2.80;99.90
75210;DHT22;63796;53.136;14.882;2023-02-26T04:09:24;2.90;99.90
75210;DHT22;63796;53.136;14.882;2023-02-26T04:11:52;2.70;99.90
75210;DHT22;63796;53.136;14.882;2023-02-26T04:14:20;2.80;99.90
75210;DHT22;63796;53.136;14.882;2023-02-26T04:16:47;2.70;99.90
75210;DHT22;63796;53.136;14.882;2023-02-26T04:19:15;2.70;99.90
75210;DHT22;63796;53.136;14.882;2023-02-26T04:21:42;2.70;99.90
75210;DHT22;63796;53.136;14.882;2023-02-26T04:24:09;2.60;99.90
75210;DHT22;63796;53.136;14.882;2023-02-26T04:26:37;2.80;99.90
75210;DHT22;63796;53.136;14.882;2023-02-26T04:29:04;2.80;99.90
75210;DHT22;63796;53.136;14.882;2023-02-26T04:31:31;2.70;99.90
75210;DHT22;63796;53.136;14.882;2023-02-26T04:33:59;2.60;99.90
75210;DHT22;63796;53.136;14.882;2023-02-26T04:36:26;2.60;99.90
75210;DHT22;63796;53.136;14.882;2023-02-26T04:38:53;2.60;99.90
75210;DHT22;63796;53.136;14.882;2023-02-26T04:41:21;2.50;99.90
75210;DHT22;63796;53.136;14.882;2023-02-26T04:43:48;2.50;99.90
75210;DHT22;63796;53.136;14.882;2023-02-26T04:46:16;2.60;99.90
75210;DHT22;63796;53.136;14.882;2023-02-26T04:48:43;2.60;99.90
75210;DHT22;63796;53.136;14.882;2023-02-26T04:51:10;2.60;99.90
75210;DHT22;63796;53.136;14.882;2023-02-26T04:53:38;2.50;99.90
75210;DHT22;63796;53.136;14.882;2023-02-26T04:56:05;2.40;99.90
75210;DHT22;63796;53.136;14.882;2023-02-26T04:58:34;2.40;99.90
75210;DHT22;63796;53.136;14.882;2023-02-26T05:01:01;2.20;99.90
75210;DHT22;63796;53.136;14.882;2023-02-26T05:03:29;2.10;99.90
75210;DHT22;63796;53.136;14.882;2023-02-26T05:05:56;2.10;99.90
75210;DHT22;63796;53.136;14.882;2023-02-26T05:08:23;2.10;99.90
75210;DHT22;63796;53.136;14.882;2023-02-26T05:10:51;2.10;99.90
75210;DHT22;63796;53.136;14.882;2023-02-26T05:13:18;2.00;99.90
75210;DHT22;63796;53.136;14.882;2023-02-26T05:15:46;2.10;99.90
75210;DHT22;63796;53.136;14.882;2023-02-26T05:18:13;2.30;99.90
75210;DHT22;63796;53.136;14.882;2023-02-26T05:20:40;2.40;99.90
75210;DHT22;63796;53.136;14.882;2023-02-26T05:23:07;2.50;99.90
75210;DHT22;63796;53.136;14.882;2023-02-26T05:25:35;2.40;99.90
75210;DHT22;63796;53.136;14.882;2023-02-26T05:28:02;2.30;99.90
75210;DHT22;63796;53.136;14.882;2023-02-26T05:30:29;2.20;99.90
75210;DHT22;63796;53.136;14.882;2023-02-26T05:32:56;2.10;99.90
75210;DHT22;63796;53.136;14.882;2023-02-26T05:35:24;1.90;99.90
75210;DHT22;63796;53.136;14.882;2023-02-26T05:37:51;1.90;99.90
75210;DHT22;63796;53.136;14.882;2023-02-26T05:40:18;1.90;99.90
75210;DHT22;63796;53.136;14.882;2023-02-26T05:42:45;1.80;99.90
75210;DHT22;63796;53.136;14.882;2023-02-26T05:45:13;1.90;99.90
75210;DHT22;63796;53.136;14.882;2023-02-26T05:47:40;1.90;99.90
75210;DHT22;63796;53.136;14.882;2023-02-26T05:50:08;1.90;99.90
75210;DHT22;63796;53.136;14.882;2023-02-26T05:52:36;1.90;99.90
75210;DHT22;63796;53.136;14.882;2023-02-26T05:55:03;2.10;99.90
75210;DHT22;63796;53.136;14.882;2023-02-26T05:57:31;2.10;99.90
75210;DHT22;63796;53.136;14.882;2023-02-26T05:59:58;2.30;99.90
75210;DHT22;63796;53.136;14.882;2023-02-26T06:02:25;2.20;99.90
75210;DHT22;63796;53.136;14.882;2023-02-26T06:04:53;2.30;99.90
75210;DHT22;63796;53.136;14.882;2023-02-26T06:07:20;2.40;99.90
75210;DHT22;63796;53.136;14.882;2023-02-26T06:09:48;2.50;99.90
75210;DHT22;63796;53.136;14.882;2023-02-26T06:12:15;2.50;99.90
75210;DHT22;63796;53.136;14.882;2023-02-26T06:14:43;2.50;99.90
75210;DHT22;63796;53.136;14.882;2023-02-26T06:17:10;2.40;99.90
75210;DHT22;63796;53.136;14.882;2023-02-26T06:19:37;2.30;99.90
75210;DHT22;63796;53.136;14.882;2023-02-26T06:22:04;2.20;99.90
75210;DHT22;63796;53.136;14.882;2023-02-26T06:24:31;2.20;99.90
75210;DHT22;63796;53.136;14.882;2023-02-26T06:26:59;2.20;99.90
75210;DHT22;63796;53.136;14.882;2023-02-26T06:29:26;2.30;99.90
75210;DHT22;63796;53.136;14.882;2023-02-26T06:31:53;2.40;99.90
75210;DHT22;63796;53.136;14.882;2023-02-26T06:34:21;2.50;99.90
75210;DHT22;63796;53.136;14.882;2023-02-26T06:36:48;2.50;99.90
75210;DHT22;63796;53.136;14.882;2023-02-26T06:39:16;2.70;99.90
75210;DHT22;63796;53.136;14.882;2023-02-26T06:41:43;2.60;99.90
75210;DHT22;63796;53.136;14.882;2023-02-26T06:44:10;2.70;99.90
75210;DHT22;63796;53.136;14.882;2023-02-26T06:46:38;2.70;99.90
75210;DHT22;63796;53.136;14.882;2023-02-26T06:49:05;2.70;99.90
75210;DHT22;63796;53.136;14.882;2023-02-26T06:51:33;2.70;99.90
75210;DHT22;63796;53.136;14.882;2023-02-26T06:54:00;2.80;99.90
75210;DHT22;63796;53.136;14.882;2023-02-26T06:56:28;2.80;99.90
75210;DHT22;63796;53.136;14.882;2023-02-26T06:58:55;2.90;99.90
75210;DHT22;63796;53.136;14.882;2023-02-26T07:01:23;2.80;99.90
75210;DHT22;63796;53.136;14.882;2023-02-26T07:03:50;2.80;99.90
75210;DHT22;63796;53.136;14.882;2023-02-26T07:06:18;2.90;99.90
75210;DHT22;63796;53.136;14.882;2023-02-26T07:08:53;3.00;99.90
75210;DHT22;63796;53.136;14.882;2023-02-26T07:11:21;3.20;99.90
75210;DHT22;63796;53.136;14.882;2023-02-26T07:13:49;3.20;99.90
75210;DHT22;63796;53.136;14.882;2023-02-26T07:16:17;3.10;99.90
75210;DHT22;63796;53.136;14.882;2023-02-26T07:18:45;3.20;99.90
75210;DHT22;63796;53.136;14.882;2023-02-26T07:21:12;3.30;99.90
75210;DHT22;63796;53.136;14.882;2023-02-26T07:23:39;3.50;99.90
75210;DHT22;63796;53.136;14.882;2023-02-26T07:26:07;3.60;99.90
75210;DHT22;63796;53.136;14.882;2023-02-26T07:28:34;3.50;99.90
75210;DHT22;63796;53.136;14.882;2023-02-26T07:31:02;3.60;99.90
75210;DHT22;63796;53.136;14.882;2023-02-26T07:33:30;3.60;99.90
75210;DHT22;63796;53.136;14.882;2023-02-26T07:35:57;3.70;99.90
75210;DHT22;63796;53.136;14.882;2023-02-26T07:38:25;3.90;99.90
75210;DHT22;63796;53.136;14.882;2023-02-26T07:40:53;4.10;99.90
75210;DHT22;63796;53.136;14.882;2023-02-26T07:43:22;4.40;99.90
75210;DHT22;63796;53.136;14.882;2023-02-26T07:45:50;4.90;99.90
75210;DHT22;63796;53.136;14.882;2023-02-26T07:48:18;5.40;99.90
75210;DHT22;63796;53.136;14.882;2023-02-26T07:50:46;5.60;99.90
75210;DHT22;63796;53.136;14.882;2023-02-26T07:53:17;5.40;99.90
75210;DHT22;63796;53.136;14.882;2023-02-26T07:55:45;5.90;99.90
75210;DHT22;63796;53.136;14.882;2023-02-26T07:58:13;5.90;99.90
75210;DHT22;63796;53.136;14.882;2023-02-26T08:00:40;5.60;99.90
75210;DHT22;63796;53.136;14.882;2023-02-26T08:03:08;5.50;99.90
75210;DHT22;63796;53.136;14.882;2023-02-26T08:05:35;5.30;99.90
75210;DHT22;63796;53.136;14.882;2023-02-26T08:08:03;5.10;99.90
75210;DHT22;63796;53.136;14.882;2023-02-26T08:10:30;4.70;99.90
75210;DHT22;63796;53.136;14.882;2023-02-26T08:12:57;4.50;99.90
75210;DHT22;63796;53.136;14.882;2023-02-26T08:15:25;4.50;99.90
75210;DHT22;63796;53.136;14.882;2023-02-26T08:17:53;4.60;99.90
75210;DHT22;63796;53.136;14.882;2023-02-26T08:20:20;4.60;99.90
75210;DHT22;63796;53.136;14.882;2023-02-26T08:22:51;4.20;99.90
75210;DHT22;63796;53.136;14.882;2023-02-26T08:25:19;4.20;99.90
75210;DHT22;63796;53.136;14.882;2023-02-26T08:27:46;4.30;99.90
75210;DHT22;63796;53.136;14.882;2023-02-26T08:30:14;4.50;99.90
75210;DHT22;63796;53.136;14.882;2023-02-26T08:32:41;4.70;99.90
75210;DHT22;63796;53.136;14.882;2023-02-26T08:35:08;4.60;99.90
75210;DHT22;63796;53.136;14.882;2023-02-26T08:37:36;4.60;99.90
75210;DHT22;63796;53.136;14.882;2023-02-26T08:40:05;4.60;99.90
75210;DHT22;63796;53.136;14.882;2023-02-26T08:42:34;4.70;99.90
75210;DHT22;63796;53.136;14.882;2023-02-26T08:45:02;4.80;99.90
75210;DHT22;63796;53.136;14.882;2023-02-26T08:47:29;4.80;99.90
75210;DHT22;63796;53.136;14.882;2023-02-26T08:49:58;4.90;99.90
75210;DHT22;63796;53.136;14.882;2023-02-26T08:52:25;5.00;99.90
75210;DHT22;63796;53.136;14.882;2023-02-26T08:54:53;5.50;99.90
75210;DHT22;63796;53.136;14.882;2023-02-26T08:57:20;5.80;99.90
75210;DHT22;63796;53.136;14.882;2023-02-26T08:59:47;5.70;99.90
75210;DHT22;63796;53.136;14.882;2023-02-26T09:02:15;6.00;99.90
75210;DHT22;63796;53.136;14.882;2023-02-26T09:04:42;6.30;99.90
75210;DHT22;63796;53.136;14.882;2023-02-26T09:07:09;6.40;99.90
75210;DHT22;63796;53.136;14.882;2023-02-26T09:09:37;6.60;99.90
75210;DHT22;63796;53.136;14.882;2023-02-26T09:12:04;6.50;99.90
75210;DHT22;63796;53.136;14.882;2023-02-26T09:14:31;6.30;99.90
75210;DHT22;63796;53.136;14.882;2023-02-26T09:16:59;6.20;99.90
75210;DHT22;63796;53.136;14.882;2023-02-26T09:19:26;5.60;99.90
75210;DHT22;63796;53.136;14.882;2023-02-26T09:21:54;5.60;99.90
75210;DHT22;63796;53.136;14.882;2023-02-26T09:24:21;5.90;99.90
75210;DHT22;63796;53.136;14.882;2023-02-26T09:26:49;5.90;99.90
75210;DHT22;63796;53.136;14.882;2023-02-26T09:29:16;5.80;99.90
75210;DHT22;63796;53.136;14.882;2023-02-26T09:31:44;6.10;99.90
75210;DHT22;63796;53.136;14.882;2023-02-26T09:34:11;6.60;99.90
75210;DHT22;63796;53.136;14.882;2023-02-26T09:36:39;7.40;99.90
75210;DHT22;63796;53.136;14.882;2023-02-26T09:39:06;7.70;99.90
75210;DHT22;63796;53.136;14.882;2023-02-26T09:41:36;7.60;99.90
75210;DHT22;63796;53.136;14.882;2023-02-26T09:46:40;7.60;99.90
75210;DHT22;63796;53.136;14.882;2023-02-26T09:55:00;7.50;99.90
75210;DHT22;63796;53.136;14.882;2023-02-26T09:57:33;8.30;99.90
75210;DHT22;63796;53.136;14.882;2023-02-26T10:00:06;9.30;96.80
75210;DHT22;63796;53.136;14.882;2023-02-26T10:08:15;9.30;93.30
75210;DHT22;63796;53.136;14.882;2023-02-26T10:10:54;8.80;95.70
75210;DHT22;63796;53.136;14.882;2023-02-26T10:16:04;8.60;92.20
75210;DHT22;63796;53.136;14.882;2023-02-26T10:18:43;8.70;91.70
75210;DHT22;63796;53.136;14.882;2023-02-26T10:21:35;9.40;91.20
75210;DHT22;63796;53.136;14.882;2023-02-26T10:24:10;9.70;91.40
75210;DHT22;63796;53.136;14.882;2023-02-26T10:27:03;9.50;85.50
75210;DHT22;63796;53.136;14.882;2023-02-26T10:29:37;9.50;87.50
75210;DHT22;63796;53.136;14.882;2023-02-26T10:32:17;9.50;82.30
75210;DHT22;63796;53.136;14.882;2023-02-26T10:51:35;13.10;66.30
75210;DHT22;63796;53.136;14.882;2023-02-26T10:56:53;16.00;58.60
75210;DHT22;63796;53.136;14.882;2023-02-26T10:59:20;14.10;57.40
75210;DHT22;63796;53.136;14.882;2023-02-26T11:01:48;12.90;59.60
75210;DHT22;63796;53.136;14.882;2023-02-26T11:04:18;11.30;61.30
75210;DHT22;63796;53.136;14.882;2023-02-26T11:06:53;10.70;64.30
75210;DHT22;63796;53.136;14.882;2023-02-26T11:09:28;12.20;59.30
75210;DHT22;63796;53.136;14.882;2023-02-26T11:12:04;14.70;57.20
75210;DHT22;63796;53.136;14.882;2023-02-26T11:14:32;15.40;54.50
75210;DHT22;63796;53.136;14.882;2023-02-26T11:17:00;12.10;58.00
75210;DHT22;63796;53.136;14.882;2023-02-26T11:19:31;11.60;62.40
75210;DHT22;63796;53.136;14.882;2023-02-26T11:22:02;11.70;63.50
75210;DHT22;63796;53.136;14.882;2023-02-26T11:24:34;13.00;61.60
75210;DHT22;63796;53.136;14.882;2023-02-26T11:27:05;14.00;59.20
75210;DHT22;63796;53.136;14.882;2023-02-26T11:29:38;15.20;56.40
75210;DHT22;63796;53.136;14.882;2023-02-26T11:32:18;15.10;57.20
75210;DHT22;63796;53.136;14.882;2023-02-26T11:34:49;15.10;54.40
75210;DHT22;63796;53.136;14.882;2023-02-26T11:37:19;12.50;57.40
75210;DHT22;63796;53.136;14.882;2023-02-26T11:39:50;11.60;59.30
75210;DHT22;63796;53.136;14.882;2023-02-26T11:42:24;11.60;59.50
75210;DHT22;63796;53.136;14.882;2023-02-26T11:44:52;10.80;59.10
75210;DHT22;63796;53.136;14.882;2023-02-26T11:47:22;10.40;60.90
75210;DHT22;63796;53.136;14.882;2023-02-26T11:49:54;10.10;63.10
75210;DHT22;63796;53.136;14.882;2023-02-26T11:55:00;10.50;61.40
75210;DHT22;63796;53.136;14.882;2023-02-26T11:57:30;10.60;59.50
75210;DHT22;63796;53.136;14.882;2023-02-26T11:59:59;10.30;61.10
75210;DHT22;63796;53.136;14.882;2023-02-26T12:02:42;10.40;59.50
75210;DHT22;63796;53.136;14.882;2023-02-26T12:05:11;11.20;59.50
75210;DHT22;63796;53.136;14.882;2023-02-26T12:07:42;12.00;59.10
75210;DHT22;63796;53.136;14.882;2023-02-26T12:10:14;11.90;60.30
75210;DHT22;63796;53.136;14.882;2023-02-26T12:21:58;8.20;72.20
75210;DHT22;63796;53.136;14.882;2023-02-26T12:24:57;8.00;72.40
75210;DHT22;63796;53.136;14.882;2023-02-26T12:28:07;7.80;73.60
75210;DHT22;63796;53.136;14.882;2023-02-26T12:36:30;8.70;72.10
75210;DHT22;63796;53.136;14.882;2023-02-26T13:19:23;11.70;67.50
75210;DHT22;63796;53.136;14.882;2023-02-26T13:22:17;12.40;58.70
75210;DHT22;63796;53.136;14.882;2023-02-26T13:27:21;8.80;60.00
75210;DHT22;63796;53.136;14.882;2023-02-26T13:30:02;7.80;66.00
75210;DHT22;63796;53.136;14.882;2023-02-26T13:32:50;7.50;64.30
75210;DHT22;63796;53.136;14.882;2023-02-26T13:35:24;7.60;66.60
75210;DHT22;63796;53.136;14.882;2023-02-26T13:37:55;7.40;67.70
75210;DHT22;63796;53.136;14.882;2023-02-26T13:49:11;7.20;68.20
75210;DHT22;63796;53.136;14.882;2023-02-26T13:51:46;7.80;69.60
75210;DHT22;63796;53.136;14.882;2023-02-26T14:04:50;7.00;71.20
75210;DHT22;63796;53.136;14.882;2023-02-26T14:10:14;7.10;73.10
75210;DHT22;63796;53.136;14.882;2023-02-26T14:12:43;7.00;74.00
75210;DHT22;63796;53.136;14.882;2023-02-26T14:17:48;6.60;75.10
75210;DHT22;63796;53.136;14.882;2023-02-26T14:20:21;6.60;75.10
75210;DHT22;63796;53.136;14.882;2023-02-26T14:31:05;6.30;81.20
75210;DHT22;63796;53.136;14.882;2023-02-26T14:34:21;6.20;82.50
75210;DHT22;63796;53.136;14.882;2023-02-26T14:36:43;6.10;81.80
75210;DHT22;63796;53.136;14.882;2023-02-26T14:39:22;6.50;82.70
75210;DHT22;63796;53.136;14.882;2023-02-26T14:41:54;6.60;81.30
75210;DHT22;63796;53.136;14.882;2023-02-26T14:44:30;6.40;79.30
75210;DHT22;63796;53.136;14.882;2023-02-26T14:47:03;6.20;77.30
75210;DHT22;63796;53.136;14.882;2023-02-26T14:49:38;6.30;77.90
75210;DHT22;63796;53.136;14.882;2023-02-26T14:52:16;6.60;78.50
75210;DHT22;63796;53.136;14.882;2023-02-26T14:55:01;6.60;76.20
75210;DHT22;63796;53.136;14.882;2023-02-26T15:03:35;6.60;74.80
75210;DHT22;63796;53.136;14.882;2023-02-26T15:06:35;6.50;74.00
75210;DHT22;63796;53.136;14.882;2023-02-26T15:24:49;6.20;78.40
75210;DHT22;63796;53.136;14.882;2023-02-26T15:27:17;6.10;77.60
75210;DHT22;63796;53.136;14.882;2023-02-26T15:29:46;6.10;78.50
75210;DHT22;63796;53.136;14.882;2023-02-26T15:32:21;6.20;79.00
75210;DHT22;63796;53.136;14.882;2023-02-26T15:34:54;6.20;79.70
75210;DHT22;63796;53.136;14.882;2023-02-26T15:37:26;6.30;79.00
75210;DHT22;63796;53.136;14.882;2023-02-26T15:39:56;6.20;77.70
75210;DHT22;63796;53.136;14.882;2023-02-26T15:42:28;6.10;78.50
75210;DHT22;63796;53.136;14.882;2023-02-26T15:45:00;5.70;78.40
75210;DHT22;63796;53.136;14.882;2023-02-26T15:47:29;5.60;81.50
75210;DHT22;63796;53.136;14.882;2023-02-26T15:49:57;5.40;82.00
75210;DHT22;63796;53.136;14.882;2023-02-26T15:52:25;5.40;81.00
75210;DHT22;63796;53.136;14.882;2023-02-26T15:54:57;5.40;79.80
75210;DHT22;63796;53.136;14.882;2023-02-26T15:57:26;5.40;81.70
75210;DHT22;63796;53.136;14.882;2023-02-26T16:00:06;5.40;79.80
75210;DHT22;63796;53.136;14.882;2023-02-26T16:02:37;5.50;78.50
75210;DHT22;63796;53.136;14.882;2023-02-26T16:05:09;5.40;78.10
75210;DHT22;63796;53.136;14.882;2023-02-26T16:07:40;5.40;78.70
75210;DHT22;63796;53.136;14.882;2023-02-26T16:10:14;5.20;78.80
75210;DHT22;63796;53.136;14.882;2023-02-26T16:12:43;5.20;80.90
75210;DHT22;63796;53.136;14.882;2023-02-26T16:15:16;5.10;80.00
75210;DHT22;63796;53.136;14.882;2023-02-26T16:17:54;4.90;83.70
75210;DHT22;63796;53.136;14.882;2023-02-26T16:20:24;4.90;85.70
75210;DHT22;63796;53.136;14.882;2023-02-26T16:23:01;4.90;87.20
75210;DHT22;63796;53.136;14.882;2023-02-26T16:25:38;4.90;86.90
75210;DHT22;63796;53.136;14.882;2023-02-26T16:28:14;4.70;88.40
75210;DHT22;63796;53.136;14.882;2023-02-26T16:30:47;4.70;87.80
75210;DHT22;63796;53.136;14.882;2023-02-26T16:33:20;4.40;89.40
75210;DHT22;63796;53.136;14.882;2023-02-26T16:35:53;4.40;90.40
75210;DHT22;63796;53.136;14.882;2023-02-26T16:41:12;4.40;91.10
75210;DHT22;63796;53.136;14.882;2023-02-26T16:46:12;4.20;92.10
75210;DHT22;63796;53.136;14.882;2023-02-26T16:48:53;4.00;92.90
75210;DHT22;63796;53.136;14.882;2023-02-26T16:51:24;4.00;93.90
75210;DHT22;63796;53.136;14.882;2023-02-26T16:53:56;4.10;93.40
75210;DHT22;63796;53.136;14.882;2023-02-26T16:56:26;4.00;92.70
75210;DHT22;63796;53.136;14.882;2023-02-26T17:01:34;3.80;93.20
75210;DHT22;63796;53.136;14.882;2023-02-26T17:04:05;3.70;93.30
75210;DHT22;63796;53.136;14.882;2023-02-26T17:06:34;3.50;93.20
75210;DHT22;63796;53.136;14.882;2023-02-26T17:09:22;3.40;93.80
75210;DHT22;63796;53.136;14.882;2023-02-26T17:12:21;3.40;94.20
75210;DHT22;63796;53.136;14.882;2023-02-26T17:14:55;3.40;94.20
75210;DHT22;63796;53.136;14.882;2023-02-26T17:17:24;3.30;94.60
75210;DHT22;63796;53.136;14.882;2023-02-26T17:19:51;3.40;95.30
75210;DHT22;63796;53.136;14.882;2023-02-26T17:22:22;3.30;94.80
75210;DHT22;63796;53.136;14.882;2023-02-26T17:24:52;3.20;96.00
75210;DHT22;63796;53.136;14.882;2023-02-26T17:27:24;3.20;96.70
75210;DHT22;63796;53.136;14.882;2023-02-26T17:29:56;3.20;96.80
75210;DHT22;63796;53.136;14.882;2023-02-26T17:32:26;3.10;97.20
75210;DHT22;63796;53.136;14.882;2023-02-26T17:34:54;3.10;97.40
75210;DHT22;63796;53.136;14.882;2023-02-26T17:37:22;2.90;97.10
75210;DHT22;63796;53.136;14.882;2023-02-26T17:39:55;2.90;98.10
75210;DHT22;63796;53.136;14.882;2023-02-26T17:42:23;2.90;98.00
75210;DHT22;63796;53.136;14.882;2023-02-26T17:44:50;3.10;98.10
75210;DHT22;63796;53.136;14.882;2023-02-26T17:47:19;3.40;96.70
75210;DHT22;63796;53.136;14.882;2023-02-26T17:49:48;3.50;96.50
75210;DHT22;63796;53.136;14.882;2023-02-26T17:52:16;3.60;96.20
75210;DHT22;63796;53.136;14.882;2023-02-26T17:54:43;3.70;96.20
75210;DHT22;63796;53.136;14.882;2023-02-26T17:57:15;3.80;95.30
75210;DHT22;63796;53.136;14.882;2023-02-26T17:59:44;3.70;95.40
75210;DHT22;63796;53.136;14.882;2023-02-26T18:02:16;3.60;95.70
75210;DHT22;63796;53.136;14.882;2023-02-26T18:04:53;3.50;96.10
75210;DHT22;63796;53.136;14.882;2023-02-26T18:07:20;3.60;96.00
75210;DHT22;63796;53.136;14.882;2023-02-26T18:09:50;3.80;96.00
75210;DHT22;63796;53.136;14.882;2023-02-26T18:12:20;3.80;95.80
75210;DHT22;63796;53.136;14.882;2023-02-26T18:14:48;3.90;95.70
75210;DHT22;63796;53.136;14.882;2023-02-26T18:17:26;4.00;95.20
75210;DHT22;63796;53.136;14.882;2023-02-26T18:19:57;4.00;94.40
75210;DHT22;63796;53.136;14.882;2023-02-26T18:22:24;3.90;95.10
75210;DHT22;63796;53.136;14.882;2023-02-26T18:24:53;3.80;94.40
75210;DHT22;63796;53.136;14.882;2023-02-26T18:27:22;3.90;94.90
75210;DHT22;63796;53.136;14.882;2023-02-26T18:29:51;3.80;95.10
75210;DHT22;63796;53.136;14.882;2023-02-26T18:32:20;3.90;94.80
75210;DHT22;63796;53.136;14.882;2023-02-26T18:34:49;4.00;95.10
75210;DHT22;63796;53.136;14.882;2023-02-26T18:37:18;3.90;95.60
75210;DHT22;63796;53.136;14.882;2023-02-26T18:39:47;4.10;95.20
75210;DHT22;63796;53.136;14.882;2023-02-26T18:42:19;4.10;95.30
75210;DHT22;63796;53.136;14.882;2023-02-26T18:44:51;4.10;95.30
75210;DHT22;63796;53.136;14.882;2023-02-26T18:47:20;4.10;96.00
75210;DHT22;63796;53.136;14.882;2023-02-26T18:49:49;4.10;96.20
75210;DHT22;63796;53.136;14.882;2023-02-26T18:52:18;4.10;96.10
75210;DHT22;63796;53.136;14.882;2023-02-26T18:54:45;4.10;97.00
75210;DHT22;63796;53.136;14.882;2023-02-26T18:57:12;4.10;97.70
75210;DHT22;63796;53.136;14.882;2023-02-26T18:59:40;4.10;97.60
75210;DHT22;63796;53.136;14.882;2023-02-26T19:02:09;4.00;98.40
75210;DHT22;63796;53.136;14.882;2023-02-26T19:04:40;4.20;98.50
75210;DHT22;63796;53.136;14.882;2023-02-26T19:07:08;4.10;98.60
75210;DHT22;63796;53.136;14.882;2023-02-26T19:09:36;4.10;98.70
75210;DHT22;63796;53.136;14.882;2023-02-26T19:12:04;4.10;99.20
75210;DHT22;63796;53.136;14.882;2023-02-26T19:14:32;4.20;99.60
75210;DHT22;63796;53.136;14.882;2023-02-26T19:17:00;4.20;99.40
75210;DHT22;63796;53.136;14.882;2023-02-26T19:19:27;4.20;99.90
75210;DHT22;63796;53.136;14.882;2023-02-26T19:21:54;4.20;99.90
75210;DHT22;63796;53.136;14.882;2023-02-26T19:24:23;4.20;99.90
75210;DHT22;63796;53.136;14.882;2023-02-26T19:26:50;4.20;99.90
75210;DHT22;63796;53.136;14.882;2023-02-26T19:29:18;4.20;99.90
75210;DHT22;63796;53.136;14.882;2023-02-26T19:31:45;4.10;99.90
75210;DHT22;63796;53.136;14.882;2023-02-26T19:34:13;4.20;99.90